sensor_id;sensor_type;location;lat;lon;timestamp;temperature;humidity
65995;HTU21D;52764;51.036;5.852;2024-03-02T00:00:43;11.89;57.81
65995;HTU21D;52764;51.036;5.852;2024-03-02T00:03:09;11.87;57.71
65995;HTU21D;52764;51.036;5.852;2024-03-02T00:05:37;11.85;57.60
65995;HTU21D;52764;51.036;5.852;2024-03-02T00:08:05;11.85;57.67
65995;HTU21D;52764;51.036;5.852;2024-03-02T00:10:37;11.90;57.48
65995;HTU21D;52764;51.036;5.852;2024-03-02T00:13:05;11.86;57.64
65995;HTU21D;52764;51.036;5.852;2024-03-02T00:15:47;11.91;57.58
65995;HTU21D;52764;51.036;5.852;2024-03-02T00:18:15;11.94;57.57
65995;HTU21D;52764;51.036;5.852;2024-03-02T00:20:42;11.98;57.47
65995;HTU21D;52764;51.036;5.852;2024-03-02T00:23:09;11.62;57.48
65995;HTU21D;52764;51.036;5.852;2024-03-02T00:25:52;12.00;57.50
65995;HTU21D;52764;51.036;5.852;2024-03-02T00:28:24;11.97;57.48
65995;HTU21D;52764;51.036;5.852;2024-03-02T00:31:04;-17.16;57.54
65995;HTU21D;52764;51.036;5.852;2024-03-02T00:33:35;11.97;57.55
65995;HTU21D;52764;51.036;5.852;2024-03-02T00:36:05;11.92;57.57
65995;HTU21D;52764;51.036;5.852;2024-03-02T00:38:32;11.98;57.64
65995;HTU21D;52764;51.036;5.852;2024-03-02T00:41:05;12.03;57.64
65995;HTU21D;52764;51.036;5.852;2024-03-02T00:46:12;12.08;57.56
65995;HTU21D;52764;51.036;5.852;2024-03-02T00:48:40;12.11;57.61
65995;HTU21D;52764;51.036;5.852;2024-03-02T00:51:10;12.16;57.59
65995;HTU21D;52764;51.036;5.852;2024-03-02T00:53:37;12.19;57.51
65995;HTU21D;52764;51.036;5.852;2024-03-02T00:56:03;12.21;57.48
65995;HTU21D;52764;51.036;5.852;2024-03-02T00:58:29;12.28;57.40
65995;HTU21D;52764;51.036;5.852;2024-03-02T01:00:54;12.32;57.35
65995;HTU21D;52764;51.036;5.852;2024-03-02T01:03:20;12.37;57.32
65995;HTU21D;52764;51.036;5.852;2024-03-02T01:05:46;12.40;57.47
65995;HTU21D;52764;51.036;5.852;2024-03-02T01:08:12;12.44;57.67
65995;HTU21D;52764;51.036;5.852;2024-03-02T01:10:37;12.42;58.46
65995;HTU21D;52764;51.036;5.852;2024-03-02T01:13:03;12.28;60.15
65995;HTU21D;52764;51.036;5.852;2024-03-02T01:15:29;12.04;61.99
65995;HTU21D;52764;51.036;5.852;2024-03-02T01:17:55;11.81;63.70
65995;HTU21D;52764;51.036;5.852;2024-03-02T01:20:20;11.63;65.35
65995;HTU21D;52764;51.036;5.852;2024-03-02T01:22:47;11.51;66.43
65995;HTU21D;52764;51.036;5.852;2024-03-02T01:25:13;11.37;67.49
65995;HTU21D;52764;51.036;5.852;2024-03-02T01:27:39;11.17;68.49
65995;HTU21D;52764;51.036;5.852;2024-03-02T01:30:05;11.04;69.63
65995;HTU21D;52764;51.036;5.852;2024-03-02T01:32:31;11.02;70.27
65995;HTU21D;52764;51.036;5.852;2024-03-02T01:34:58;10.99;70.37
65995;HTU21D;52764;51.036;5.852;2024-03-02T01:37:23;11.02;71.00
65995;HTU21D;52764;51.036;5.852;2024-03-02T01:39:49;-18.92;70.96
65995;HTU21D;52764;51.036;5.852;2024-03-02T01:42:15;11.01;70.86
65995;HTU21D;52764;51.036;5.852;2024-03-02T01:44:41;11.03;71.09
65995;HTU21D;52764;51.036;5.852;2024-03-02T01:47:07;11.12;71.10
65995;HTU21D;52764;51.036;5.852;2024-03-02T01:49:33;11.15;70.70
65995;HTU21D;52764;51.036;5.852;2024-03-02T01:51:59;11.15;70.86
65995;HTU21D;52764;51.036;5.852;2024-03-02T01:54:25;11.16;70.35
65995;HTU21D;52764;51.036;5.852;2024-03-02T01:56:51;11.18;69.97
65995;HTU21D;52764;51.036;5.852;2024-03-02T01:59:17;11.24;69.30
65995;HTU21D;52764;51.036;5.852;2024-03-02T02:01:43;8.93;69.07
65995;HTU21D;52764;51.036;5.852;2024-03-02T02:04:09;11.25;68.71
65995;HTU21D;52764;51.036;5.852;2024-03-02T02:06:35;11.24;68.79
65995;HTU21D;52764;51.036;5.852;2024-03-02T02:09:01;11.17;68.47
65995;HTU21D;52764;51.036;5.852;2024-03-02T02:11:26;11.13;68.67
65995;HTU21D;52764;51.036;5.852;2024-03-02T02:13:52;11.07;68.78
65995;HTU21D;52764;51.036;5.852;2024-03-02T02:16:21;11.05;68.76
65995;HTU21D;52764;51.036;5.852;2024-03-02T02:18:47;11.05;69.00
65995;HTU21D;52764;51.036;5.852;2024-03-02T02:21:12;11.03;68.79
65995;HTU21D;52764;51.036;5.852;2024-03-02T02:23:38;11.00;68.48
65995;HTU21D;52764;51.036;5.852;2024-03-02T02:26:04;10.95;68.68
65995;HTU21D;52764;51.036;5.852;2024-03-02T02:28:30;10.88;68.65
65995;HTU21D;52764;51.036;5.852;2024-03-02T02:30:56;10.83;68.83
65995;HTU21D;52764;51.036;5.852;2024-03-02T02:33:24;10.69;68.85
65995;HTU21D;52764;51.036;5.852;2024-03-02T02:35:50;10.56;69.45
65995;HTU21D;52764;51.036;5.852;2024-03-02T02:38:16;10.56;69.81
65995;HTU21D;52764;51.036;5.852;2024-03-02T02:40:41;10.54;69.83
65995;HTU21D;52764;51.036;5.852;2024-03-02T02:43:07;10.54;69.82
65995;HTU21D;52764;51.036;5.852;2024-03-02T02:45:33;10.25;69.47
65995;HTU21D;52764;51.036;5.852;2024-03-02T02:47:59;10.50;69.56
65995;HTU21D;52764;51.036;5.852;2024-03-02T02:50:26;10.51;69.58
65995;HTU21D;52764;51.036;5.852;2024-03-02T02:52:52;10.54;69.70
65995;HTU21D;52764;51.036;5.852;2024-03-02T02:55:17;10.53;69.12
65995;HTU21D;52764;51.036;5.852;2024-03-02T02:57:43;10.51;68.86
65995;HTU21D;52764;51.036;5.852;2024-03-02T03:00:12;10.58;68.94
65995;HTU21D;52764;51.036;5.852;2024-03-02T03:02:48;10.64;68.62
65995;HTU21D;52764;51.036;5.852;2024-03-02T03:05:15;10.71;68.36
65995;HTU21D;52764;51.036;5.852;2024-03-02T03:07:41;10.67;68.33
65995;HTU21D;52764;51.036;5.852;2024-03-02T03:10:08;10.72;68.39
65995;HTU21D;52764;51.036;5.852;2024-03-02T03:12:34;10.75;67.96
65995;HTU21D;52764;51.036;5.852;2024-03-02T03:15:02;10.74;67.80
65995;HTU21D;52764;51.036;5.852;2024-03-02T03:17:28;10.75;67.57
65995;HTU21D;52764;51.036;5.852;2024-03-02T03:19:54;10.74;67.47
65995;HTU21D;52764;51.036;5.852;2024-03-02T03:22:20;10.72;67.75
65995;HTU21D;52764;51.036;5.852;2024-03-02T03:24:46;10.77;68.17
65995;HTU21D;52764;51.036;5.852;2024-03-02T03:27:11;10.79;67.97
65995;HTU21D;52764;51.036;5.852;2024-03-02T03:29:37;35.51;67.89
65995;HTU21D;52764;51.036;5.852;2024-03-02T03:32:03;10.75;68.11
65995;HTU21D;52764;51.036;5.852;2024-03-02T03:34:33;10.77;68.11
65995;HTU21D;52764;51.036;5.852;2024-03-02T03:36:59;10.74;67.84
65995;HTU21D;52764;51.036;5.852;2024-03-02T03:39:24;10.65;67.96
65995;HTU21D;52764;51.036;5.852;2024-03-02T03:41:50;10.56;68.24
65995;HTU21D;52764;51.036;5.852;2024-03-02T03:44:16;10.50;68.27
65995;HTU21D;52764;51.036;5.852;2024-03-02T03:46:42;10.44;68.99
65995;HTU21D;52764;51.036;5.852;2024-03-02T03:49:08;10.37;81.43
65995;HTU21D;52764;51.036;5.852;2024-03-02T03:51:34;10.41;69.34
65995;HTU21D;52764;51.036;5.852;2024-03-02T03:53:59;10.43;69.43
65995;HTU21D;52764;51.036;5.852;2024-03-02T03:56:25;10.46;69.42
65995;HTU21D;52764;51.036;5.852;2024-03-02T03:58:50;10.46;69.37
65995;HTU21D;52764;51.036;5.852;2024-03-02T04:01:16;12.82;69.33
65995;HTU21D;52764;51.036;5.852;2024-03-02T04:03:42;10.42;69.52
65995;HTU21D;52764;51.036;5.852;2024-03-02T04:06:07;9.95;69.63
65995;HTU21D;52764;51.036;5.852;2024-03-02T04:08:33;10.34;69.90
65995;HTU21D;52764;51.036;5.852;2024-03-02T04:10:59;10.34;69.93
65995;HTU21D;52764;51.036;5.852;2024-03-02T04:13:24;10.29;70.26
65995;HTU21D;52764;51.036;5.852;2024-03-02T04:15:50;10.26;70.62
65995;HTU21D;52764;51.036;5.852;2024-03-02T04:18:16;10.26;70.86
65995;HTU21D;52764;51.036;5.852;2024-03-02T04:20:44;10.25;71.03
65995;HTU21D;52764;51.036;5.852;2024-03-02T04:23:10;10.24;71.30
65995;HTU21D;52764;51.036;5.852;2024-03-02T04:25:35;9.65;71.37
65995;HTU21D;52764;51.036;5.852;2024-03-02T04:28:01;10.18;71.54
65995;HTU21D;52764;51.036;5.852;2024-03-02T04:30:27;10.16;71.60
65995;HTU21D;52764;51.036;5.852;2024-03-02T04:32:53;10.15;71.64
65995;HTU21D;52764;51.036;5.852;2024-03-02T04:35:18;10.15;71.61
65995;HTU21D;52764;51.036;5.852;2024-03-02T04:37:44;10.16;71.60
65995;HTU21D;52764;51.036;5.852;2024-03-02T04:40:10;5.40;71.68
65995;HTU21D;52764;51.036;5.852;2024-03-02T04:42:36;10.19;71.64
65995;HTU21D;52764;51.036;5.852;2024-03-02T04:45:03;10.28;71.58
65995;HTU21D;52764;51.036;5.852;2024-03-02T04:47:29;10.36;71.07
65995;HTU21D;52764;51.036;5.852;2024-03-02T04:49:54;-20.21;70.68
65995;HTU21D;52764;51.036;5.852;2024-03-02T04:52:20;10.42;70.76
65995;HTU21D;52764;51.036;5.852;2024-03-02T04:54:46;10.44;70.13
65995;HTU21D;52764;51.036;5.852;2024-03-02T04:57:30;10.45;69.86
65995;HTU21D;52764;51.036;5.852;2024-03-02T04:59:56;10.48;69.65
65995;HTU21D;52764;51.036;5.852;2024-03-02T05:02:21;1.93;69.50
65995;HTU21D;52764;51.036;5.852;2024-03-02T05:04:47;10.45;69.29
65995;HTU21D;52764;51.036;5.852;2024-03-02T05:07:14;10.42;69.11
65995;HTU21D;52764;51.036;5.852;2024-03-02T05:09:40;10.38;68.91
65995;HTU21D;52764;51.036;5.852;2024-03-02T05:12:05;10.38;68.91
65995;HTU21D;52764;51.036;5.852;2024-03-02T05:14:50;10.43;69.29
65995;HTU21D;52764;51.036;5.852;2024-03-02T05:17:15;10.45;68.56
65995;HTU21D;52764;51.036;5.852;2024-03-02T05:19:41;10.49;68.35
65995;HTU21D;52764;51.036;5.852;2024-03-02T05:22:07;10.53;68.30
65995;HTU21D;52764;51.036;5.852;2024-03-02T05:24:33;10.54;68.06
65995;HTU21D;52764;51.036;5.852;2024-03-02T05:26:58;2.10;68.17
65995;HTU21D;52764;51.036;5.852;2024-03-02T05:29:25;10.63;68.00
65995;HTU21D;52764;51.036;5.852;2024-03-02T05:31:50;10.63;68.09
65995;HTU21D;52764;51.036;5.852;2024-03-02T05:34:16;10.57;79.67
65995;HTU21D;52764;51.036;5.852;2024-03-02T05:36:42;10.55;68.30
65995;HTU21D;52764;51.036;5.852;2024-03-02T05:39:08;10.56;68.42
65995;HTU21D;52764;51.036;5.852;2024-03-02T05:41:36;10.56;68.29
65995;HTU21D;52764;51.036;5.852;2024-03-02T05:44:02;10.56;68.25
65995;HTU21D;52764;51.036;5.852;2024-03-02T05:46:27;10.57;68.10
65995;HTU21D;52764;51.036;5.852;2024-03-02T05:48:53;10.60;68.13
65995;HTU21D;52764;51.036;5.852;2024-03-02T05:51:19;10.67;68.26
65995;HTU21D;52764;51.036;5.852;2024-03-02T05:53:45;10.70;68.09
65995;HTU21D;52764;51.036;5.852;2024-03-02T05:56:10;10.70;67.79
65995;HTU21D;52764;51.036;5.852;2024-03-02T05:58:37;10.75;68.01
65995;HTU21D;52764;51.036;5.852;2024-03-02T06:01:19;10.84;67.66
65995;HTU21D;52764;51.036;5.852;2024-03-02T06:03:44;11.30;67.49
65995;HTU21D;52764;51.036;5.852;2024-03-02T06:06:10;10.88;67.06
65995;HTU21D;52764;51.036;5.852;2024-03-02T06:08:36;10.84;66.91
65995;HTU21D;52764;51.036;5.852;2024-03-02T06:11:02;10.81;66.58
65995;HTU21D;52764;51.036;5.852;2024-03-02T06:13:27;10.77;66.40
65995;HTU21D;52764;51.036;5.852;2024-03-02T06:15:53;10.67;66.14
65995;HTU21D;52764;51.036;5.852;2024-03-02T06:18:19;7.03;66.15
65995;HTU21D;52764;51.036;5.852;2024-03-02T06:20:44;10.41;66.46
65995;HTU21D;52764;51.036;5.852;2024-03-02T06:23:10;10.34;66.80
65995;HTU21D;52764;51.036;5.852;2024-03-02T06:25:36;10.29;66.75
65995;HTU21D;52764;51.036;5.852;2024-03-02T06:28:03;10.24;66.96
65995;HTU21D;52764;51.036;5.852;2024-03-02T06:30:29;10.19;66.91
65995;HTU21D;52764;51.036;5.852;2024-03-02T06:32:55;10.14;66.88
65995;HTU21D;52764;51.036;5.852;2024-03-02T06:35:21;10.08;66.97
65995;HTU21D;52764;51.036;5.852;2024-03-02T06:37:46;9.99;67.03
65995;HTU21D;52764;51.036;5.852;2024-03-02T06:40:12;9.94;67.24
65995;HTU21D;52764;51.036;5.852;2024-03-02T06:42:38;9.86;67.42
65995;HTU21D;52764;51.036;5.852;2024-03-02T06:45:04;9.80;67.42
65995;HTU21D;52764;51.036;5.852;2024-03-02T06:47:29;9.78;67.57
65995;HTU21D;52764;51.036;5.852;2024-03-02T06:49:56;9.79;67.57
65995;HTU21D;52764;51.036;5.852;2024-03-02T06:52:22;9.81;67.89
65995;HTU21D;52764;51.036;5.852;2024-03-02T06:54:48;9.82;67.75
65995;HTU21D;52764;51.036;5.852;2024-03-02T06:57:14;9.81;67.51
65995;HTU21D;52764;51.036;5.852;2024-03-02T06:59:39;9.81;67.68
65995;HTU21D;52764;51.036;5.852;2024-03-02T07:02:05;9.77;67.62
65995;HTU21D;52764;51.036;5.852;2024-03-02T07:04:31;9.75;67.67
65995;HTU21D;52764;51.036;5.852;2024-03-02T07:06:56;9.71;67.81
65995;HTU21D;52764;51.036;5.852;2024-03-02T07:09:22;9.77;68.00
65995;HTU21D;52764;51.036;5.852;2024-03-02T07:11:48;9.84;68.06
65995;HTU21D;52764;51.036;5.852;2024-03-02T07:14:14;10.03;68.26
65995;HTU21D;52764;51.036;5.852;2024-03-02T07:16:41;10.60;67.94
65995;HTU21D;52764;51.036;5.852;2024-03-02T07:19:09;11.29;66.69
65995;HTU21D;52764;51.036;5.852;2024-03-02T07:21:35;12.00;64.66
65995;HTU21D;52764;51.036;5.852;2024-03-02T07:24:01;12.65;63.23
65995;HTU21D;52764;51.036;5.852;2024-03-02T07:26:30;13.29;61.27
65995;HTU21D;52764;51.036;5.852;2024-03-02T07:28:57;13.84;59.45
65995;HTU21D;52764;51.036;5.852;2024-03-02T07:31:23;14.01;57.84
65995;HTU21D;52764;51.036;5.852;2024-03-02T07:33:48;14.11;56.80
65995;HTU21D;52764;51.036;5.852;2024-03-02T07:36:14;13.68;56.97
65995;HTU21D;52764;51.036;5.852;2024-03-02T07:38:40;13.62;56.95
65995;HTU21D;52764;51.036;5.852;2024-03-02T07:41:07;13.53;57.17
65995;HTU21D;52764;51.036;5.852;2024-03-02T07:43:33;13.53;56.97
65995;HTU21D;52764;51.036;5.852;2024-03-02T07:45:59;13.39;57.07
65995;HTU21D;52764;51.036;5.852;2024-03-02T07:48:25;13.18;56.68
65995;HTU21D;52764;51.036;5.852;2024-03-02T07:50:52;12.93;57.21
65995;HTU21D;52764;51.036;5.852;2024-03-02T07:53:18;12.77;57.79
65995;HTU21D;52764;51.036;5.852;2024-03-02T07:55:44;12.59;58.08
65995;HTU21D;52764;51.036;5.852;2024-03-02T07:58:10;12.55;58.70
65995;HTU21D;52764;51.036;5.852;2024-03-02T08:00:39;12.57;59.21
65995;HTU21D;52764;51.036;5.852;2024-03-02T08:03:05;12.55;60.95
65995;HTU21D;52764;51.036;5.852;2024-03-02T08:05:34;12.38;58.93
65995;HTU21D;52764;51.036;5.852;2024-03-02T08:08:00;12.35;59.28
65995;HTU21D;52764;51.036;5.852;2024-03-02T08:10:26;12.28;59.36
65995;HTU21D;52764;51.036;5.852;2024-03-02T08:12:51;12.13;59.43
65995;HTU21D;52764;51.036;5.852;2024-03-02T08:15:17;12.11;59.89
65995;HTU21D;52764;51.036;5.852;2024-03-02T08:17:44;12.16;59.90
65995;HTU21D;52764;51.036;5.852;2024-03-02T08:20:15;12.14;59.71
65995;HTU21D;52764;51.036;5.852;2024-03-02T08:22:41;12.08;59.82
65995;HTU21D;52764;51.036;5.852;2024-03-02T08:25:07;12.04;59.94
65995;HTU21D;52764;51.036;5.852;2024-03-02T08:27:33;5.15;59.84
65995;HTU21D;52764;51.036;5.852;2024-03-02T08:29:59;12.14;60.12
65995;HTU21D;52764;51.036;5.852;2024-03-02T08:32:25;12.26;60.08
65995;HTU21D;52764;51.036;5.852;2024-03-02T08:34:50;12.26;59.70
65995;HTU21D;52764;51.036;5.852;2024-03-02T08:37:16;12.29;59.69
65995;HTU21D;52764;51.036;5.852;2024-03-02T08:39:42;12.32;59.54
65995;HTU21D;52764;51.036;5.852;2024-03-02T08:42:08;12.36;59.58
65995;HTU21D;52764;51.036;5.852;2024-03-02T08:44:34;12.28;59.33
65995;HTU21D;52764;51.036;5.852;2024-03-02T08:46:59;12.30;59.36
65995;HTU21D;52764;51.036;5.852;2024-03-02T08:49:25;12.30;59.44
65995;HTU21D;52764;51.036;5.852;2024-03-02T08:51:51;12.37;59.52
65995;HTU21D;52764;51.036;5.852;2024-03-02T08:54:23;12.47;59.43
65995;HTU21D;52764;51.036;5.852;2024-03-02T08:56:50;12.50;58.93
65995;HTU21D;52764;51.036;5.852;2024-03-02T08:59:16;12.52;58.92
65995;HTU21D;52764;51.036;5.852;2024-03-02T09:01:42;12.60;58.73
65995;HTU21D;52764;51.036;5.852;2024-03-02T09:04:08;12.64;58.63
65995;HTU21D;52764;51.036;5.852;2024-03-02T09:06:34;-15.79;59.48
65995;HTU21D;52764;51.036;5.852;2024-03-02T09:09:00;12.61;58.09
65995;HTU21D;52764;51.036;5.852;2024-03-02T09:11:26;12.62;57.93
65995;HTU21D;52764;51.036;5.852;2024-03-02T09:13:52;12.57;58.90
65995;HTU21D;52764;51.036;5.852;2024-03-02T09:16:18;12.56;57.77
65995;HTU21D;52764;51.036;5.852;2024-03-02T09:18:45;12.60;57.79
65995;HTU21D;52764;51.036;5.852;2024-03-02T09:21:10;12.70;57.55
65995;HTU21D;52764;51.036;5.852;2024-03-02T09:23:36;12.77;57.22
65995;HTU21D;52764;51.036;5.852;2024-03-02T09:26:02;12.77;56.85
65995;HTU21D;52764;51.036;5.852;2024-03-02T09:28:28;12.78;56.74
65995;HTU21D;52764;51.036;5.852;2024-03-02T09:30:54;12.93;56.95
65995;HTU21D;52764;51.036;5.852;2024-03-02T09:33:20;13.02;56.22
65995;HTU21D;52764;51.036;5.852;2024-03-02T09:35:46;13.11;56.07
65995;HTU21D;52764;51.036;5.852;2024-03-02T09:38:13;13.19;55.65
65995;HTU21D;52764;51.036;5.852;2024-03-02T09:40:39;13.24;55.74
65995;HTU21D;52764;51.036;5.852;2024-03-02T09:43:05;13.37;55.39
65995;HTU21D;52764;51.036;5.852;2024-03-02T09:45:32;7.96;55.52
65995;HTU21D;52764;51.036;5.852;2024-03-02T09:47:59;13.64;55.11
65995;HTU21D;52764;51.036;5.852;2024-03-02T09:50:25;13.69;54.51
65995;HTU21D;52764;51.036;5.852;2024-03-02T09:52:52;13.81;54.32
65995;HTU21D;52764;51.036;5.852;2024-03-02T09:55:18;13.66;54.23
65995;HTU21D;52764;51.036;5.852;2024-03-02T09:57:45;13.55;54.06
65995;HTU21D;52764;51.036;5.852;2024-03-02T10:00:12;13.49;54.20
65995;HTU21D;52764;51.036;5.852;2024-03-02T10:02:43;13.36;54.20
65995;HTU21D;52764;51.036;5.852;2024-03-02T10:05:09;13.54;54.03
65995;HTU21D;52764;51.036;5.852;2024-03-02T10:07:35;13.58;53.68
65995;HTU21D;52764;51.036;5.852;2024-03-02T10:10:14;13.54;53.88
65995;HTU21D;52764;51.036;5.852;2024-03-02T10:12:41;13.69;53.75
65995;HTU21D;52764;51.036;5.852;2024-03-02T10:15:07;13.75;53.43
65995;HTU21D;52764;51.036;5.852;2024-03-02T10:17:34;13.85;53.04
65995;HTU21D;52764;51.036;5.852;2024-03-02T10:20:23;13.91;53.38
65995;HTU21D;52764;51.036;5.852;2024-03-02T10:22:50;13.94;52.67
65995;HTU21D;52764;51.036;5.852;2024-03-02T10:25:32;13.97;52.67
65995;HTU21D;52764;51.036;5.852;2024-03-02T10:28:01;13.95;52.07
65995;HTU21D;52764;51.036;5.852;2024-03-02T10:30:27;13.95;52.04
65995;HTU21D;52764;51.036;5.852;2024-03-02T10:32:56;13.92;52.01
65995;HTU21D;52764;51.036;5.852;2024-03-02T10:35:23;13.88;51.87
65995;HTU21D;52764;51.036;5.852;2024-03-02T10:37:49;14.13;51.68
65995;HTU21D;52764;51.036;5.852;2024-03-02T10:40:15;13.84;52.14
65995;HTU21D;52764;51.036;5.852;2024-03-02T10:42:42;13.81;52.09
65995;HTU21D;52764;51.036;5.852;2024-03-02T10:45:12;13.81;52.00
65995;HTU21D;52764;51.036;5.852;2024-03-02T10:47:38;13.83;51.99
65995;HTU21D;52764;51.036;5.852;2024-03-02T10:50:05;13.89;51.56
65995;HTU21D;52764;51.036;5.852;2024-03-02T10:52:37;13.97;51.84
65995;HTU21D;52764;51.036;5.852;2024-03-02T10:55:05;14.00;51.67
65995;HTU21D;52764;51.036;5.852;2024-03-02T10:57:45;8.92;51.56
65995;HTU21D;52764;51.036;5.852;2024-03-02T11:00:15;14.12;51.75
65995;HTU21D;52764;51.036;5.852;2024-03-02T11:02:51;14.28;51.65
65995;HTU21D;52764;51.036;5.852;2024-03-02T11:05:34;14.43;50.83
65995;HTU21D;52764;51.036;5.852;2024-03-02T11:08:12;14.37;50.27
65995;HTU21D;52764;51.036;5.852;2024-03-02T11:10:53;14.44;51.78
65995;HTU21D;52764;51.036;5.852;2024-03-02T11:13:32;14.51;50.41
65995;HTU21D;52764;51.036;5.852;2024-03-02T11:16:05;14.62;50.28
65995;HTU21D;52764;51.036;5.852;2024-03-02T11:18:32;14.63;50.05
65995;HTU21D;52764;51.036;5.852;2024-03-02T11:20:59;14.71;50.31
65995;HTU21D;52764;51.036;5.852;2024-03-02T11:23:35;14.80;50.04
65995;HTU21D;52764;51.036;5.852;2024-03-02T11:26:21;16.17;50.13
65995;HTU21D;52764;51.036;5.852;2024-03-02T11:28:47;14.85;49.42
65995;HTU21D;52764;51.036;5.852;2024-03-02T11:31:13;14.73;48.53
65995;HTU21D;52764;51.036;5.852;2024-03-02T11:33:39;14.77;48.75
65995;HTU21D;52764;51.036;5.852;2024-03-02T11:36:08;14.75;48.62
65995;HTU21D;52764;51.036;5.852;2024-03-02T11:38:35;14.72;48.50
65995;HTU21D;52764;51.036;5.852;2024-03-02T11:41:03;14.81;48.52
65995;HTU21D;52764;51.036;5.852;2024-03-02T11:43:32;14.84;47.89
65995;HTU21D;52764;51.036;5.852;2024-03-02T11:46:00;14.87;48.14
65995;HTU21D;52764;51.036;5.852;2024-03-02T11:48:26;14.95;47.99
65995;HTU21D;52764;51.036;5.852;2024-03-02T11:50:52;14.98;48.27
65995;HTU21D;52764;51.036;5.852;2024-03-02T11:53:20;15.09;48.21
65995;HTU21D;52764;51.036;5.852;2024-03-02T11:55:46;15.16;48.06
65995;HTU21D;52764;51.036;5.852;2024-03-02T11:58:14;15.34;48.15
65995;HTU21D;52764;51.036;5.852;2024-03-02T12:00:40;15.53;47.70
65995;HTU21D;52764;51.036;5.852;2024-03-02T12:03:07;15.72;47.37
65995;HTU21D;52764;51.036;5.852;2024-03-02T12:05:35;15.87;47.07
65995;HTU21D;52764;51.036;5.852;2024-03-02T12:08:06;16.08;46.67
65995;HTU21D;52764;51.036;5.852;2024-03-02T12:10:33;16.24;46.18
65995;HTU21D;52764;51.036;5.852;2024-03-02T12:13:04;16.39;43.13
65995;HTU21D;52764;51.036;5.852;2024-03-02T12:15:32;16.47;45.87
65995;HTU21D;52764;51.036;5.852;2024-03-02T12:17:59;16.55;45.45
65995;HTU21D;52764;51.036;5.852;2024-03-02T12:20:27;16.57;44.85
65995;HTU21D;52764;51.036;5.852;2024-03-02T12:22:57;16.59;45.24
65995;HTU21D;52764;51.036;5.852;2024-03-02T12:25:24;16.58;44.93
65995;HTU21D;52764;51.036;5.852;2024-03-02T12:27:52;16.50;44.83
65995;HTU21D;52764;51.036;5.852;2024-03-02T12:30:19;16.47;44.97
65995;HTU21D;52764;51.036;5.852;2024-03-02T12:32:45;16.39;45.69
65995;HTU21D;52764;51.036;5.852;2024-03-02T12:35:12;16.63;45.05
65995;HTU21D;52764;51.036;5.852;2024-03-02T12:37:44;16.72;44.39
65995;HTU21D;52764;51.036;5.852;2024-03-02T12:40:11;16.90;44.54
65995;HTU21D;52764;51.036;5.852;2024-03-02T12:42:38;17.07;44.37
65995;HTU21D;52764;51.036;5.852;2024-03-02T12:45:05;17.21;31.67
65995;HTU21D;52764;51.036;5.852;2024-03-02T12:47:30;17.35;43.78
65995;HTU21D;52764;51.036;5.852;2024-03-02T12:49:56;17.36;43.39
65995;HTU21D;52764;51.036;5.852;2024-03-02T12:52:23;17.34;43.42
65995;HTU21D;52764;51.036;5.852;2024-03-02T12:54:49;17.41;43.92
65995;HTU21D;52764;51.036;5.852;2024-03-02T12:57:19;17.35;43.77
65995;HTU21D;52764;51.036;5.852;2024-03-02T12:59:45;17.51;43.66
65995;HTU21D;52764;51.036;5.852;2024-03-02T13:02:18;17.45;43.46
65995;HTU21D;52764;51.036;5.852;2024-03-02T13:04:44;17.33;43.59
65995;HTU21D;52764;51.036;5.852;2024-03-02T13:07:10;17.19;43.71
65995;HTU21D;52764;51.036;5.852;2024-03-02T13:09:39;17.19;44.08
65995;HTU21D;52764;51.036;5.852;2024-03-02T13:12:05;17.16;44.25
65995;HTU21D;52764;51.036;5.852;2024-03-02T13:14:35;17.14;44.08
65995;HTU21D;52764;51.036;5.852;2024-03-02T13:17:01;17.05;43.24
65995;HTU21D;52764;51.036;5.852;2024-03-02T13:19:29;16.95;47.83
65995;HTU21D;52764;51.036;5.852;2024-03-02T13:21:56;16.95;44.42
65995;HTU21D;52764;51.036;5.852;2024-03-02T13:24:27;16.89;44.17
65995;HTU21D;52764;51.036;5.852;2024-03-02T13:26:55;16.79;44.90
65995;HTU21D;52764;51.036;5.852;2024-03-02T13:29:23;16.90;44.61
65995;HTU21D;52764;51.036;5.852;2024-03-02T13:31:50;-7.17;44.32
65995;HTU21D;52764;51.036;5.852;2024-03-02T13:34:16;16.93;44.06
65995;HTU21D;52764;51.036;5.852;2024-03-02T13:36:42;16.93;44.25
65995;HTU21D;52764;51.036;5.852;2024-03-02T13:39:07;14.84;44.33
65995;HTU21D;52764;51.036;5.852;2024-03-02T13:41:36;16.96;44.39
65995;HTU21D;52764;51.036;5.852;2024-03-02T13:44:03;17.06;44.61
65995;HTU21D;52764;51.036;5.852;2024-03-02T13:46:29;17.15;44.27
65995;HTU21D;52764;51.036;5.852;2024-03-02T13:48:54;17.17;44.20
65995;HTU21D;52764;51.036;5.852;2024-03-02T13:51:24;17.19;44.41
65995;HTU21D;52764;51.036;5.852;2024-03-02T13:53:50;17.16;44.19
65995;HTU21D;52764;51.036;5.852;2024-03-02T13:56:16;17.19;44.28
65995;HTU21D;52764;51.036;5.852;2024-03-02T13:58:43;17.17;43.98
65995;HTU21D;52764;51.036;5.852;2024-03-02T14:01:09;17.31;44.07
65995;HTU21D;52764;51.036;5.852;2024-03-02T14:03:35;17.46;43.61
65995;HTU21D;52764;51.036;5.852;2024-03-02T14:06:01;17.53;43.59
65995;HTU21D;52764;51.036;5.852;2024-03-02T14:08:26;17.47;43.40
65995;HTU21D;52764;51.036;5.852;2024-03-02T14:10:52;17.45;43.70
65995;HTU21D;52764;51.036;5.852;2024-03-02T14:13:18;17.41;44.11
65995;HTU21D;52764;51.036;5.852;2024-03-02T14:15:44;17.41;44.25
65995;HTU21D;52764;51.036;5.852;2024-03-02T14:18:11;17.29;44.63
65995;HTU21D;52764;51.036;5.852;2024-03-02T14:20:37;17.08;44.54
65995;HTU21D;52764;51.036;5.852;2024-03-02T14:23:03;17.03;44.74
65995;HTU21D;52764;51.036;5.852;2024-03-02T14:25:32;17.03;45.00
65995;HTU21D;52764;51.036;5.852;2024-03-02T14:27:59;17.02;45.03
65995;HTU21D;52764;51.036;5.852;2024-03-02T14:30:25;17.05;44.71
65995;HTU21D;52764;51.036;5.852;2024-03-02T14:32:51;17.13;44.43
65995;HTU21D;52764;51.036;5.852;2024-03-02T14:35:17;17.07;44.20
65995;HTU21D;52764;51.036;5.852;2024-03-02T14:37:42;17.15;44.22
65995;HTU21D;52764;51.036;5.852;2024-03-02T14:40:09;17.28;44.42
65995;HTU21D;52764;51.036;5.852;2024-03-02T14:42:35;17.41;44.48
65995;HTU21D;52764;51.036;5.852;2024-03-02T14:45:02;17.49;44.38
65995;HTU21D;52764;51.036;5.852;2024-03-02T14:47:32;16.11;44.29
65995;HTU21D;52764;51.036;5.852;2024-03-02T14:49:59;17.65;44.21
65995;HTU21D;52764;51.036;5.852;2024-03-02T14:52:25;17.72;44.44
65995;HTU21D;52764;51.036;5.852;2024-03-02T14:54:50;17.70;44.22
65995;HTU21D;52764;51.036;5.852;2024-03-02T14:57:16;17.65;44.30
65995;HTU21D;52764;51.036;5.852;2024-03-02T14:59:42;17.64;44.44
65995;HTU21D;52764;51.036;5.852;2024-03-02T15:02:08;17.52;48.04
65995;HTU21D;52764;51.036;5.852;2024-03-02T15:04:34;17.38;44.90
65995;HTU21D;52764;51.036;5.852;2024-03-02T15:07:00;15.63;45.19
65995;HTU21D;52764;51.036;5.852;2024-03-02T15:09:26;17.32;45.35
65995;HTU21D;52764;51.036;5.852;2024-03-02T15:11:53;17.29;45.78
65995;HTU21D;52764;51.036;5.852;2024-03-02T15:14:19;16.86;45.93
65995;HTU21D;52764;51.036;5.852;2024-03-02T15:16:44;17.23;45.90
65995;HTU21D;52764;51.036;5.852;2024-03-02T15:19:10;17.06;46.19